Time;durP1;ratioP1;P1;durP2;ratioP2;P2;SDS_P1;SDS_P2;PMS_P1;PMS_P2;Temp;Humidity;BMP_temperature;BMP_pressure;BME280_temperature;BME280_humidity;BME280_pressure;Samples;Min_cycle;Max_cycle;Signal;HPM_P1;HPM_P2
2021/05/20 00:00:36;;;;;;;1.80;0.60;;;;;;;-142.37;100.00;59669.53;5074407;28;20024;-61
2021/05/20 00:03:02;;;;;;;1.23;0.40;;;;;;;-142.37;100.00;59669.53;5074804;28;20021;-61
2021/05/20 00:05:28;;;;;;;0.65;0.40;;;;;;;-142.37;100.00;59669.53;5073217;28;20066;-60
2021/05/20 00:07:53;;;;;;;0.40;0.38;;;;;;;-142.37;100.00;59669.53;5074553;28;20043;-61
2021/05/20 00:10:19;;;;;;;1.52;0.40;;;;;;;-142.37;100.00;59669.53;5074491;28;20024;-61
2021/05/20 00:12:45;;;;;;;2.38;0.82;;;;;;;-142.37;100.00;59669.53;5074391;28;20178;-60
2021/05/20 00:15:12;;;;;;;1.33;0.30;;;;;;;-142.37;100.00;59669.53;5064189;28;20103;-60
2021/05/20 00:17:37;;;;;;;1.85;0.55;;;;;;;-142.37;100.00;59669.53;5053037;28;20079;-60
2021/05/20 00:20:04;;;;;;;1.10;0.50;;;;;;;-142.37;100.00;59669.53;5054546;28;20037;-60
2021/05/20 00:22:29;;;;;;;0.32;0.20;;;;;;;-142.37;100.00;59669.53;5053998;28;20052;-61
2021/05/20 00:24:55;;;;;;;1.58;0.50;;;;;;;-142.37;100.00;59669.53;5054257;28;20028;-61
2021/05/20 00:27:20;;;;;;;1.73;0.50;;;;;;;-142.37;100.00;59669.53;5054187;28;20037;-61
2021/05/20 00:29:49;;;;;;;0.90;0.40;;;;;;;-142.37;100.00;59669.53;5067671;28;20224;-60
2021/05/20 00:32:14;;;;;;;1.60;0.52;;;;;;;-142.37;100.00;59669.53;5074040;28;20020;-60
2021/05/20 00:34:39;;;;;;;0.95;0.52;;;;;;;-142.37;100.00;59669.53;5073923;28;20070;-61
2021/05/20 00:37:04;;;;;;;1.75;0.50;;;;;;;-142.37;100.00;59669.53;5074025;28;20024;-60
2021/05/20 00:39:30;;;;;;;1.23;0.52;;;;;;;-142.37;100.00;59669.53;5073791;28;20032;-61
2021/05/20 00:41:55;;;;;;;1.48;0.60;;;;;;;-142.37;100.00;59669.53;5073917;28;20031;-60
2021/05/20 00:44:20;;;;;;;0.75;0.40;;;;;;;-142.37;100.00;59669.53;5073170;28;20225;-60
2021/05/20 00:46:45;;;;;;;1.00;0.50;;;;;;;-142.37;100.00;59669.53;5073725;28;20491;-60
2021/05/20 00:49:11;;;;;;;0.90;0.40;;;;;;;-142.37;100.00;59669.53;5055534;28;20037;-61
2021/05/20 00:51:41;;;;;;;1.05;0.40;;;;;;;-142.37;100.00;59669.53;5053641;28;20025;-60
2021/05/20 00:54:08;;;;;;;1.23;0.30;;;;;;;-142.37;100.00;59669.53;5053782;28;20025;-61
2021/05/20 00:56:37;;;;;;;0.65;0.43;;;;;;;-142.37;100.00;59669.53;5053491;28;20145;-60
2021/05/20 00:59:04;;;;;;;3.22;0.40;;;;;;;-142.37;100.00;59669.53;5053625;28;20055;-60
2021/05/20 01:01:29;;;;;;;1.05;0.35;;;;;;;-142.37;100.00;59669.53;5053348;28;20021;-60
2021/05/20 01:03:56;;;;;;;0.45;0.40;;;;;;;-142.37;100.00;59669.53;5053900;28;20405;-60
2021/05/20 01:06:21;;;;;;;0.63;0.40;;;;;;;-142.37;100.00;59669.53;5053372;28;20108;-61
2021/05/20 01:08:46;;;;;;;1.30;0.40;;;;;;;-142.37;100.00;59669.53;5053399;28;20143;-60
2021/05/20 01:11:12;;;;;;;1.67;0.60;;;;;;;-142.37;100.00;59669.53;5053517;28;20472;-60
2021/05/20 01:13:38;;;;;;;3.22;0.70;;;;;;;-142.37;100.00;59669.53;5053275;28;20035;-60
2021/05/20 01:16:10;;;;;;;0.40;0.40;;;;;;;-142.37;100.00;59669.53;5070041;28;20494;-61
2021/05/20 01:18:35;;;;;;;1.15;0.57;;;;;;;-142.37;100.00;59669.53;5072603;28;20103;-61
2021/05/20 01:21:00;;;;;;;1.88;0.50;;;;;;;-142.37;100.00;59669.53;5072946;28;20124;-61
2021/05/20 01:23:25;;;;;;;1.27;0.45;;;;;;;-142.37;100.00;59669.53;5073072;28;20054;-60
2021/05/20 01:25:51;;;;;;;2.05;0.50;;;;;;;-142.37;100.00;59669.53;5072968;28;20055;-61
2021/05/20 01:28:21;;;;;;;2.17;0.50;;;;;;;-142.37;100.00;59669.53;5073002;28;20028;-61
2021/05/20 01:30:48;;;;;;;1.50;0.60;;;;;;;-142.37;100.00;59669.53;5072915;28;20025;-60
2021/05/20 01:33:14;;;;;;;0.70;0.43;;;;;;;-142.37;100.00;59669.53;5071747;28;20483;-61
2021/05/20 01:35:40;;;;;;;1.42;0.50;;;;;;;-142.37;100.00;59669.53;5072794;28;20039;-61
2021/05/20 01:41:03;;;;;;;1.40;0.50;;;;;;;-142.37;100.00;59669.53;5073136;28;20253;-60
2021/05/20 01:43:30;;;;;;;1.65;0.60;;;;;;;-142.37;100.00;59669.53;5073052;28;20024;-61
2021/05/20 01:45:59;;;;;;;0.70;0.45;;;;;;;-142.37;100.00;59669.53;5072064;28;20368;-60
2021/05/20 01:48:27;;;;;;;0.73;0.40;;;;;;;-142.37;100.00;59669.53;5072632;28;20021;-60
2021/05/20 01:50:58;;;;;;;1.05;0.50;;;;;;;-142.37;100.00;59669.53;5072696;28;20020;-61
2021/05/20 01:53:24;;;;;;;2.97;0.60;;;;;;;-142.37;100.00;59669.53;5072659;28;20028;-61
2021/05/20 01:55:49;;;;;;;1.33;0.63;;;;;;;-142.37;100.00;59669.53;5072676;28;20035;-60
2021/05/20 01:58:15;;;;;;;1.40;0.45;;;;;;;-142.37;100.00;59669.53;5072618;28;20024;-61
2021/05/20 02:00:40;;;;;;;1.92;0.50;;;;;;;-142.37;100.00;59669.53;5072330;28;20074;-60
2021/05/20 02:03:05;;;;;;;1.33;0.57;;;;;;;-142.37;100.00;59669.53;5072676;28;20422;-61
2021/05/20 02:05:31;;;;;;;1.05;0.40;;;;;;;-142.37;100.00;59669.53;5072472;28;20106;-60
2021/05/20 02:07:56;;;;;;;0.68;0.43;;;;;;;-142.37;100.00;59669.53;5072586;28;20090;-61
2021/05/20 02:10:21;;;;;;;1.83;0.65;;;;;;;-142.37;100.00;59669.53;5072393;28;20031;-61
2021/05/20 02:12:46;;;;;;;0.93;0.43;;;;;;;-142.37;100.00;59669.53;5072219;28;20056;-61
2021/05/20 02:15:12;;;;;;;1.17;0.50;;;;;;;-142.37;100.00;59669.53;5071807;28;20067;-61
2021/05/20 02:17:37;;;;;;;0.52;0.47;;;;;;;-142.37;100.00;59669.53;5072312;28;20050;-61
2021/05/20 02:20:08;;;;;;;1.60;0.28;;;;;;;-142.37;100.00;59669.53;5072429;28;20028;-61
2021/05/20 02:22:33;;;;;;;1.63;0.88;;;;;;;-142.37;100.00;59669.53;5072119;28;20049;-61
2021/05/20 02:24:59;;;;;;;1.33;0.52;;;;;;;-142.37;100.00;59669.53;5072364;28;20069;-61
2021/05/20 02:27:24;;;;;;;1.58;0.50;;;;;;;-142.37;100.00;59669.53;5072270;28;20053;-61
2021/05/20 02:29:50;;;;;;;1.48;0.50;;;;;;;-142.37;100.00;59669.53;5072246;28;20048;-61
2021/05/20 02:32:15;;;;;;;1.30;0.40;;;;;;;-142.37;100.00;59669.53;5076666;28;20024;-61
2021/05/20 02:34:40;;;;;;;2.00;0.50;;;;;;;-142.37;100.00;59669.53;5076179;28;20518;-61
2021/05/20 02:37:06;;;;;;;1.70;0.63;;;;;;;-142.37;100.00;59669.53;5076391;28;20024;-61
2021/05/20 02:39:31;;;;;;;0.65;0.50;;;;;;;-142.37;100.00;59669.53;5076073;28;20028;-61
2021/05/20 02:41:56;;;;;;;0.98;0.50;;;;;;;-142.37;100.00;59669.53;5076289;28;20024;-59
2021/05/20 02:44:22;;;;;;;1.25;0.50;;;;;;;-142.37;100.00;59669.53;5075375;28;20032;-60
2021/05/20 02:46:48;;;;;;;0.77;0.50;;;;;;;-142.37;100.00;59669.53;5076336;28;20020;-60
2021/05/20 02:49:13;;;;;;;0.68;0.50;;;;;;;-142.37;100.00;59669.53;5075931;28;20487;-60
2021/05/20 02:51:38;;;;;;;1.05;0.40;;;;;;;-142.37;100.00;59669.53;5075892;28;20048;-60
2021/05/20 02:54:04;;;;;;;1.35;0.95;;;;;;;-142.37;100.00;59669.53;5076058;28;20032;-60
2021/05/20 02:56:29;;;;;;;1.42;0.68;;;;;;;-142.37;100.00;59669.53;5075703;28;20479;-60
2021/05/20 02:58:54;;;;;;;2.00;0.73;;;;;;;-142.37;100.00;59669.53;5075975;28;20066;-60
2021/05/20 03:01:22;;;;;;;1.40;0.82;;;;;;;-142.37;100.00;59669.53;5075803;28;20456;-61
2021/05/20 03:03:48;;;;;;;2.33;0.65;;;;;;;-142.37;100.00;59669.53;5075762;28;20062;-60
2021/05/20 03:06:13;;;;;;;1.55;0.47;;;;;;;-142.37;100.00;59669.53;5075753;28;20628;-60
2021/05/20 03:08:38;;;;;;;1.48;0.50;;;;;;;-142.37;100.00;59669.53;5075539;28;20378;-60
2021/05/20 03:11:04;;;;;;;2.85;0.68;;;;;;;-142.37;100.00;59669.53;5075772;28;20035;-60
2021/05/20 03:13:29;;;;;;;1.67;0.43;;;;;;;-142.37;100.00;59669.53;5075033;28;20476;-61
2021/05/20 03:15:54;;;;;;;2.78;1.05;;;;;;;-142.37;100.00;59669.53;5075261;28;20070;-60
2021/05/20 03:18:19;;;;;;;1.30;0.82;;;;;;;-142.37;100.00;59669.53;5075509;28;20379;-61
2021/05/20 03:20:45;;;;;;;1.23;0.50;;;;;;;-142.37;100.00;59669.53;5075118;28;20051;-61
2021/05/20 03:23:10;;;;;;;0.63;0.60;;;;;;;-142.37;100.00;59669.53;5075600;28;20112;-61
2021/05/20 03:25:35;;;;;;;1.02;0.50;;;;;;;-142.37;100.00;59669.53;5075211;28;20066;-61
2021/05/20 03:28:01;;;;;;;1.27;0.82;;;;;;;-142.37;100.00;59669.53;5075472;28;20024;-61
2021/05/20 03:30:26;;;;;;;0.88;0.40;;;;;;;-142.37;100.00;59669.53;5075114;28;20028;-60
2021/05/20 03:32:52;;;;;;;1.10;0.40;;;;;;;-142.37;100.00;59669.53;5075223;28;20036;-61
2021/05/20 03:35:17;;;;;;;1.00;0.50;;;;;;;-142.37;100.00;59669.53;5075333;28;20021;-60
2021/05/20 03:37:43;;;;;;;1.48;0.60;;;;;;;-142.37;100.00;59669.53;5075031;28;20024;-61
2021/05/20 03:40:08;;;;;;;0.73;0.40;;;;;;;-142.37;100.00;59669.53;5075108;28;20028;-61
2021/05/20 03:42:35;;;;;;;1.15;0.50;;;;;;;-142.37;100.00;59669.53;5074438;28;20025;-61
2021/05/20 03:45:00;;;;;;;1.85;0.50;;;;;;;-142.37;100.00;59669.53;5074409;28;20029;-61
2021/05/20 03:47:25;;;;;;;2.30;0.63;;;;;;;-142.37;100.00;59669.53;5074051;28;20065;-61
2021/05/20 03:49:51;;;;;;;0.60;0.50;;;;;;;-142.37;100.00;59669.53;5075254;28;20032;-61
2021/05/20 03:52:16;;;;;;;0.98;0.60;;;;;;;-142.37;100.00;59669.53;5074881;28;20028;-60
2021/05/20 03:54:42;;;;;;;0.30;0.30;;;;;;;-142.37;100.00;59669.53;5073447;28;20059;-59
2021/05/20 03:57:09;;;;;;;1.85;0.85;;;;;;;-142.37;100.00;59669.53;5073540;28;20025;-60
2021/05/20 03:59:35;;;;;;;1.40;0.45;;;;;;;-142.37;100.00;59669.53;5074593;28;20162;-60
2021/05/20 04:02:00;;;;;;;2.03;0.70;;;;;;;-142.37;100.00;59669.53;5074696;28;20516;-60
2021/05/20 04:04:25;;;;;;;1.85;0.60;;;;;;;-142.37;100.00;59669.53;5074500;28;20458;-60
2021/05/20 04:06:51;;;;;;;0.60;0.52;;;;;;;-142.37;100.00;59669.53;5075147;28;20107;-60
2021/05/20 04:09:16;;;;;;;1.20;0.40;;;;;;;-142.37;100.00;59669.53;5074627;28;20021;-60
2021/05/20 04:11:41;;;;;;;0.90;0.40;;;;;;;-142.37;100.00;59669.53;5074372;28;20070;-61
2021/05/20 04:14:06;;;;;;;1.42;0.30;;;;;;;-142.37;100.00;59669.53;5073893;28;20380;-60
2021/05/20 04:16:32;;;;;;;1.05;0.50;;;;;;;-142.37;100.00;59669.53;5074283;28;20021;-61
2021/05/20 04:18:57;;;;;;;1.05;0.60;;;;;;;-142.37;100.00;59669.53;5074498;28;20032;-60
2021/05/20 04:21:22;;;;;;;0.30;0.30;;;;;;;-142.37;100.00;59669.53;5072849;28;20068;-60
2021/05/20 04:23:48;;;;;;;1.02;0.65;;;;;;;-142.37;100.00;59669.53;5074253;28;20371;-60
2021/05/20 04:26:18;;;;;;;1.52;0.40;;;;;;;-142.37;100.00;59669.53;5074214;28;20028;-60
2021/05/20 04:28:44;;;;;;;2.05;0.40;;;;;;;-142.37;100.00;59669.53;5074408;28;20100;-60
2021/05/20 04:31:10;;;;;;;2.05;0.52;;;;;;;-142.37;100.00;59669.53;5074271;28;20043;-61
2021/05/20 04:33:35;;;;;;;1.60;0.40;;;;;;;-142.37;100.00;59669.53;5073957;28;20017;-61
2021/05/20 04:36:00;;;;;;;1.13;0.47;;;;;;;-142.37;100.00;59669.53;5074114;28;20036;-60
2021/05/20 04:38:25;;;;;;;2.38;0.50;;;;;;;-142.37;100.00;59669.53;5073852;28;20407;-61
2021/05/20 04:40:51;;;;;;;1.23;0.38;;;;;;;-142.37;100.00;59669.53;5073906;28;20028;-60
2021/05/20 04:43:16;;;;;;;1.23;0.32;;;;;;;-142.37;100.00;59669.53;5073277;28;20020;-61
2021/05/20 04:45:44;;;;;;;0.90;0.45;;;;;;;-142.37;100.00;59669.53;5073533;28;20032;-61
2021/05/20 04:48:09;;;;;;;0.82;0.43;;;;;;;-142.37;100.00;59669.53;5073867;28;20050;-60
2021/05/20 04:50:34;;;;;;;1.90;0.40;;;;;;;-142.37;100.00;59669.53;5073638;28;20024;-59
2021/05/20 04:53:00;;;;;;;0.77;0.32;;;;;;;-142.37;100.00;59669.53;5072991;28;20017;-61
2021/05/20 04:55:25;;;;;;;1.02;0.43;;;;;;;-142.37;100.00;59669.53;5073612;28;20028;-60
2021/05/20 04:57:50;;;;;;;1.10;0.25;;;;;;;-142.37;100.00;59669.53;5073628;28;20513;-60
2021/05/20 05:00:16;;;;;;;2.05;0.75;;;;;;;-142.37;100.00;59669.53;5073491;28;20040;-61
2021/05/20 05:02:42;;;;;;;0.75;0.30;;;;;;;-142.37;100.00;59669.53;5073352;28;20055;-61
2021/05/20 05:05:08;;;;;;;1.17;0.40;;;;;;;-142.37;100.00;59669.53;5073631;28;20024;-60
2021/05/20 05:07:34;;;;;;;0.25;0.10;;;;;;;-142.37;100.00;59669.53;5073161;28;20027;-60
2021/05/20 05:09:59;;;;;;;1.08;0.30;;;;;;;-142.37;100.00;59669.53;5073749;28;20029;-59
2021/05/20 05:12:26;;;;;;;2.22;1.02;;;;;;;-142.37;100.00;59669.53;5071720;28;20020;-60
2021/05/20 05:14:51;;;;;;;1.42;0.40;;;;;;;-142.37;100.00;59669.53;5072180;28;20464;-60
2021/05/20 05:17:17;;;;;;;1.27;0.50;;;;;;;-142.37;100.00;59669.53;5072495;28;20020;-59
2021/05/20 05:19:42;;;;;;;0.93;0.40;;;;;;;-142.37;100.00;59669.53;5071641;28;20306;-59
2021/05/20 05:22:07;;;;;;;0.90;0.30;;;;;;;-142.37;100.00;59669.53;5072973;28;20396;-60
2021/05/20 05:24:33;;;;;;;1.17;0.40;;;;;;;-142.37;100.00;59669.53;5072492;28;20063;-60
2021/05/20 05:26:59;;;;;;;0.93;0.30;;;;;;;-142.37;100.00;59669.53;5073149;28;20040;-60
2021/05/20 05:29:25;;;;;;;0.45;0.32;;;;;;;-142.37;100.00;59669.53;5072157;28;20033;-60
2021/05/20 05:31:50;;;;;;;1.40;0.75;;;;;;;-142.37;100.00;59669.53;5087427;28;20028;-60
2021/05/20 05:34:16;;;;;;;1.17;0.70;;;;;;;-142.37;100.00;59669.53;5063290;28;20427;-60
2021/05/20 05:36:42;;;;;;;0.57;0.30;;;;;;;-142.37;100.00;59669.53;5070669;28;20028;-61
2021/05/20 05:39:08;;;;;;;1.15;0.40;;;;;;;-142.37;100.00;59669.53;5072891;28;20024;-61
2021/05/20 05:41:34;;;;;;;0.52;0.38;;;;;;;-142.37;100.00;59669.53;5071392;28;20376;-60
2021/05/20 05:43:59;;;;;;;1.02;0.35;;;;;;;-142.37;100.00;59669.53;5072891;28;20069;-61
2021/05/20 05:46:25;;;;;;;0.43;0.10;;;;;;;-142.37;100.00;59669.53;5072862;28;20024;-61
2021/05/20 05:48:51;;;;;;;0.95;0.40;;;;;;;-142.37;100.00;59669.53;5072691;28;20162;-61
2021/05/20 05:51:19;;;;;;;0.35;0.25;;;;;;;-142.37;100.00;59669.53;5071519;28;20017;-61
2021/05/20 05:53:45;;;;;;;0.28;0.15;;;;;;;-142.37;100.00;59669.53;5072926;28;20048;-61
2021/05/20 05:56:10;;;;;;;0.85;0.32;;;;;;;-142.37;100.00;59669.53;5072645;28;20094;-61
2021/05/20 05:58:35;;;;;;;0.38;0.30;;;;;;;-142.37;100.00;59669.53;5072419;28;20024;-61
2021/05/20 06:01:02;;;;;;;1.02;0.30;;;;;;;-142.37;100.00;59669.53;5072472;28;20020;-60
2021/05/20 06:03:28;;;;;;;1.58;0.30;;;;;;;-142.37;100.00;59669.53;5062204;28;20031;-61
2021/05/20 06:05:54;;;;;;;0.25;0.20;;;;;;;-142.37;100.00;59669.53;5074269;28;20374;-61
2021/05/20 06:08:20;;;;;;;1.80;0.77;;;;;;;-142.37;100.00;59669.53;5091348;28;20527;-61
2021/05/20 06:10:46;;;;;;;0.17;0.13;;;;;;;-142.37;100.00;59669.53;5079937;28;20026;-62
2021/05/20 06:13:11;;;;;;;0.85;0.30;;;;;;;-142.37;100.00;59669.53;5087945;28;20024;-61
2021/05/20 06:15:37;;;;;;;0.75;0.20;;;;;;;-142.37;100.00;59669.53;5089500;28;20051;-62
2021/05/20 06:18:02;;;;;;;0.55;0.22;;;;;;;-142.37;100.00;59669.53;5087728;28;20032;-61
2021/05/20 06:20:27;;;;;;;1.42;0.40;;;;;;;-142.37;100.00;59669.53;5092123;28;20031;-60
2021/05/20 06:22:54;;;;;;;0.30;0.20;;;;;;;-142.37;100.00;59669.53;5081193;28;20058;-63
2021/05/20 06:25:19;;;;;;;1.05;0.40;;;;;;;-142.37;100.00;59669.53;5059946;28;20062;-61
2021/05/20 06:27:44;;;;;;;0.50;0.30;;;;;;;-142.37;100.00;59669.53;5074040;28;20056;-61
2021/05/20 06:30:10;;;;;;;0.28;0.15;;;;;;;-142.37;100.00;59669.53;5091312;28;20021;-62
2021/05/20 06:32:36;;;;;;;0.77;0.30;;;;;;;-142.37;100.00;59669.53;5065805;28;20021;-61
2021/05/20 06:35:03;;;;;;;0.32;0.20;;;;;;;-142.37;100.00;59669.53;5056367;28;20039;-61
2021/05/20 06:37:29;;;;;;;1.70;0.20;;;;;;;-142.37;100.00;59669.53;5063166;28;20052;-62
2021/05/20 06:39:54;;;;;;;0.45;0.20;;;;;;;-142.37;100.00;59669.53;5066114;28;20055;-61
2021/05/20 06:42:19;;;;;;;1.63;0.32;;;;;;;-142.37;100.00;59669.53;5053881;28;20075;-61
2021/05/20 06:44:45;;;;;;;0.32;0.13;;;;;;;-142.37;100.00;59669.53;5063635;28;20434;-61
2021/05/20 06:47:10;;;;;;;1.80;0.40;;;;;;;-142.37;100.00;59669.53;5070938;28;20456;-61
2021/05/20 06:49:35;;;;;;;1.48;0.40;;;;;;;-142.37;100.00;59669.53;5070245;28;20099;-61
2021/05/20 06:52:00;;;;;;;0.95;0.20;;;;;;;-142.37;100.00;59669.53;5083620;28;20040;-61
2021/05/20 06:54:26;;;;;;;0.40;0.30;;;;;;;-142.37;100.00;59669.53;5074076;28;20091;-61
2021/05/20 06:56:58;;;;;;;0.95;0.40;;;;;;;-142.37;100.00;59669.53;5070741;28;20472;-61
2021/05/20 07:02:08;;;;;;;1.20;0.40;;;;;;;-142.37;100.00;59669.53;5071272;28;20063;-61
2021/05/20 07:04:33;;;;;;;0.98;0.30;;;;;;;-142.37;100.00;59669.53;5074806;28;20083;-61
2021/05/20 07:07:03;;;;;;;0.95;0.40;;;;;;;-142.37;100.00;59669.53;5071705;28;20024;-62
2021/05/20 07:09:37;;;;;;;0.43;0.20;;;;;;;-142.37;100.00;59669.53;5075091;28;20035;-61
2021/05/20 07:12:04;;;;;;;0.30;0.15;;;;;;;-142.37;100.00;59669.53;5071785;28;20013;-61
2021/05/20 07:14:29;;;;;;;0.20;0.10;;;;;;;-142.37;100.00;59669.53;5071701;28;20399;-61
2021/05/20 07:16:55;;;;;;;0.63;0.20;;;;;;;-142.37;100.00;59669.53;5073124;28;20025;-61
2021/05/20 07:19:21;;;;;;;0.85;0.30;;;;;;;-142.37;100.00;59669.53;5079441;28;20032;-61
2021/05/20 07:21:47;;;;;;;1.98;0.40;;;;;;;-142.37;100.00;59669.53;5071060;28;20112;-61
2021/05/20 07:24:13;;;;;;;1.15;0.28;;;;;;;-142.37;100.00;59669.53;5063176;28;20130;-62
2021/05/20 07:26:38;;;;;;;0.43;0.20;;;;;;;-142.37;100.00;59669.53;5055249;28;20504;-62
2021/05/20 07:29:05;;;;;;;1.98;0.52;;;;;;;-142.37;100.00;59669.53;5075075;28;20031;-61
2021/05/20 07:31:31;;;;;;;0.40;0.20;;;;;;;-142.37;100.00;59669.53;5081897;28;20025;-62
2021/05/20 07:33:57;;;;;;;1.45;0.35;;;;;;;-142.37;100.00;59669.53;5055314;28;20035;-61
2021/05/20 07:36:22;;;;;;;0.98;0.32;;;;;;;-142.37;100.00;59669.53;5071963;28;20025;-61
2021/05/20 07:38:49;;;;;;;0.30;0.10;;;;;;;-142.37;100.00;59669.53;5063741;28;20023;-62
2021/05/20 07:41:15;;;;;;;0.38;0.20;;;;;;;-142.37;100.00;59669.53;5066995;28;20135;-62
2021/05/20 07:43:40;;;;;;;0.40;0.38;;;;;;;-142.37;100.00;59669.53;5073748;28;20471;-61
2021/05/20 07:46:05;;;;;;;1.15;0.57;;;;;;;-142.37;100.00;59669.53;5073685;28;20030;-67
2021/05/20 07:48:33;;;;;;;1.45;0.20;;;;;;;-142.37;100.00;59669.53;5077952;28;20410;-69
2021/05/20 07:51:03;;;;;;;3.13;0.22;;;;;;;-142.37;100.00;59669.53;5081292;28;20377;-69
2021/05/20 07:53:29;;;;;;;1.13;0.25;;;;;;;-142.37;100.00;59669.53;5089088;28;20145;-68
2021/05/20 07:55:55;;;;;;;0.10;0.10;;;;;;;-142.37;100.00;59669.53;5067847;28;20484;-65
2021/05/20 07:58:20;;;;;;;0.45;0.20;;;;;;;-142.37;100.00;59669.53;5064299;28;20116;-61
2021/05/20 08:00:45;;;;;;;1.20;0.52;;;;;;;-142.37;100.00;59669.53;5066930;28;20430;-66
2021/05/20 08:03:26;;;;;;;0.30;0.10;;;;;;;-142.37;100.00;59669.53;5085142;28;20020;-62
2021/05/20 08:11:21;;;;;;;0.80;0.20;;;;;;;-142.37;100.00;59669.53;4989811;28;20034;-66
2021/05/20 08:13:47;;;;;;;0.65;0.30;;;;;;;-142.37;100.00;59669.53;4985974;28;20030;-66
2021/05/20 08:16:13;;;;;;;1.33;0.10;;;;;;;-142.37;100.00;59669.53;4977215;28;20403;-65
2021/05/20 08:18:38;;;;;;;1.15;0.45;;;;;;;-142.37;100.00;59669.53;4983459;28;20066;-64
2021/05/20 08:21:05;;;;;;;0.30;0.30;;;;;;;-142.37;100.00;59669.53;4985131;28;20126;-65
2021/05/20 08:23:32;;;;;;;1.27;0.20;;;;;;;-142.37;100.00;59669.53;4989064;28;20089;-66
2021/05/20 08:25:57;;;;;;;0.35;0.10;;;;;;;-142.37;100.00;59669.53;4990516;28;20494;-62
2021/05/20 08:28:23;;;;;;;1.05;0.20;;;;;;;-142.37;100.00;59669.53;4990838;28;20085;-63
2021/05/20 08:30:48;;;;;;;0.73;0.20;;;;;;;-142.37;100.00;59669.53;4989707;28;20221;-65
2021/05/20 08:33:14;;;;;;;0.30;0.20;;;;;;;-142.37;100.00;59669.53;4975982;28;20523;-66
2021/05/20 08:35:39;;;;;;;1.08;0.20;;;;;;;-142.37;100.00;59669.53;4983302;28;20034;-65
2021/05/20 08:38:05;;;;;;;0.73;0.10;;;;;;;-142.37;100.00;59669.53;4974818;28;20042;-63
2021/05/20 08:40:30;;;;;;;0.77;0.28;;;;;;;-142.37;100.00;59669.53;4981590;28;20035;-64
2021/05/20 08:42:56;;;;;;;3.10;1.92;;;;;;;-142.37;100.00;59669.53;4979709;28;20023;-64
2021/05/20 08:45:28;;;;;;;4.95;2.97;;;;;;;-142.37;100.00;59669.53;5019625;28;20333;-60
2021/05/20 08:47:55;;;;;;;8.30;4.80;;;;;;;-142.37;100.00;59669.53;5079216;28;20073;-62
2021/05/20 08:50:22;;;;;;;8.20;5.70;;;;;;;-142.37;100.00;59669.53;5073905;28;20111;-61
2021/05/20 08:52:49;;;;;;;6.68;5.43;;;;;;;-142.37;100.00;59669.53;5071526;28;20028;-61
2021/05/20 08:55:17;;;;;;;6.72;5.68;;;;;;;-142.37;100.00;59669.53;5067878;28;20028;-61
2021/05/20 08:57:42;;;;;;;5.85;5.22;;;;;;;-142.37;100.00;59669.53;5068775;28;20052;-61
2021/05/20 09:00:15;;;;;;;7.07;5.68;;;;;;;-142.37;100.00;59669.53;5055901;28;20079;-60
2021/05/20 09:02:40;;;;;;;7.45;5.68;;;;;;;-142.37;100.00;59669.53;5057884;28;20118;-61
2021/05/20 09:05:07;;;;;;;5.70;5.10;;;;;;;-142.37;100.00;59669.53;5073118;28;20463;-62
2021/05/20 09:07:36;;;;;;;5.88;4.97;;;;;;;-142.37;100.00;59669.53;5083881;28;20028;-64
2021/05/20 09:10:13;;;;;;;6.15;5.03;;;;;;;-142.37;100.00;59669.53;5076123;28;20036;-64
2021/05/20 09:12:40;;;;;;;4.38;3.92;;;;;;;-142.37;100.00;59669.53;5065703;28;20496;-65
2021/05/20 09:15:17;;;;;;;4.50;4.05;;;;;;;-142.37;100.00;59669.53;5060703;28;20023;-63
2021/05/20 09:17:44;;;;;;;4.40;3.72;;;;;;;-142.37;100.00;59669.53;5070593;28;20303;-64
2021/05/20 09:20:09;;;;;;;4.95;3.75;;;;;;;-142.37;100.00;59669.53;5068530;28;20119;-63
2021/05/20 09:22:35;;;;;;;4.03;3.20;;;;;;;-142.37;100.00;59669.53;5073497;28;20587;-67
2021/05/20 09:25:02;;;;;;;4.63;3.30;;;;;;;-142.37;100.00;59669.53;5067827;28;20400;-62
2021/05/20 09:27:31;;;;;;;3.38;3.08;;;;;;;-142.37;100.00;59669.53;5070556;28;20036;-62
2021/05/20 09:30:17;;;;;;;3.00;2.70;;;;;;;-142.37;100.00;59669.53;5070832;28;20075;-61
2021/05/20 09:32:55;;;;;;;2.88;2.30;;;;;;;-142.37;100.00;59669.53;5063822;28;20104;-64
2021/05/20 09:35:28;;;;;;;2.88;2.30;;;;;;;-142.37;100.00;59669.53;5062073;28;20029;-61
2021/05/20 09:38:07;;;;;;;2.90;2.35;;;;;;;-142.37;100.00;59669.53;5051000;28;20091;-61
2021/05/20 09:40:37;;;;;;;2.00;1.80;;;;;;;-142.37;100.00;59669.53;5053571;28;20036;-62
2021/05/20 09:43:29;;;;;;;4.35;2.00;;;;;;;-142.37;100.00;59669.53;5068987;28;20036;-63
2021/05/20 09:45:54;;;;;;;1.85;1.65;;;;;;;-142.37;100.00;59669.53;5065866;28;20098;-63
2021/05/20 09:48:22;;;;;;;1.65;1.48;;;;;;;-142.37;100.00;59669.53;5086992;28;20146;-62
2021/05/20 09:50:49;;;;;;;1.25;1.15;;;;;;;-142.37;100.00;59669.53;5072220;28;20491;-63
2021/05/20 09:53:18;;;;;;;1.83;1.45;;;;;;;-142.37;100.00;59669.53;5069578;28;20088;-64
2021/05/20 09:55:54;;;;;;;1.30;1.20;;;;;;;-142.37;100.00;59669.53;5067564;28;20059;-61
2021/05/20 09:58:31;;;;;;;1.38;1.08;;;;;;;-142.37;100.00;59669.53;5065501;28;20376;-61
2021/05/20 10:01:01;;;;;;;1.92;1.00;;;;;;;-142.37;100.00;59669.53;5072149;28;20039;-63
2021/05/20 10:03:28;;;;;;;1.95;0.80;;;;;;;-142.37;100.00;59669.53;5071549;28;20016;-64
2021/05/20 10:06:02;;;;;;;1.67;0.80;;;;;;;-142.37;100.00;59669.53;5053209;28;20060;-63
2021/05/20 10:08:30;;;;;;;0.70;0.70;;;;;;;-142.37;100.00;59669.53;5050416;28;20024;-61
2021/05/20 10:11:01;;;;;;;1.38;0.70;;;;;;;-142.37;100.00;59669.53;5065582;28;20032;-61
2021/05/20 10:13:28;;;;;;;1.60;1.05;;;;;;;-142.37;100.00;59669.53;5070322;28;20024;-61
2021/05/20 10:15:55;;;;;;;1.17;0.75;;;;;;;-142.37;100.00;59669.53;5070178;28;20070;-62
2021/05/20 10:18:25;;;;;;;1.10;0.75;;;;;;;-142.37;100.00;59669.53;5068704;28;20055;-63
2021/05/20 10:20:54;;;;;;;2.50;0.82;;;;;;;-142.37;100.00;59669.53;5063056;23;20069;-63
2021/05/20 10:23:21;;;;;;;0.70;0.70;;;;;;;-142.37;100.00;59669.53;5042902;28;20028;-61
2021/05/20 10:25:49;;;;;;;0.70;0.50;;;;;;;-142.37;100.00;59669.53;5032217;28;20029;-62
2021/05/20 10:28:16;;;;;;;1.40;0.70;;;;;;;-142.37;100.00;59669.53;5038821;28;20047;-63
2021/05/20 10:30:45;;;;;;;0.88;0.55;;;;;;;-142.37;100.00;59669.53;5044281;28;20025;-63
2021/05/20 10:33:11;;;;;;;1.67;0.60;;;;;;;-142.37;100.00;59669.53;5032553;28;20017;-64
2021/05/20 10:35:43;;;;;;;0.52;0.40;;;;;;;-142.37;100.00;59669.53;5046599;28;20100;-63
2021/05/20 10:38:11;;;;;;;0.32;0.32;;;;;;;-142.37;100.00;59669.53;5035564;28;20034;-63
2021/05/20 10:40:36;;;;;;;0.75;0.45;;;;;;;-142.37;100.00;59669.53;5033462;28;20025;-61
2021/05/20 10:43:12;;;;;;;2.00;0.40;;;;;;;-142.37;100.00;59669.53;5032113;28;20522;-63
2021/05/20 10:45:40;;;;;;;1.42;0.32;;;;;;;-142.37;100.00;59669.53;5042422;28;20036;-63
2021/05/20 10:48:07;;;;;;;0.75;0.30;;;;;;;-142.37;100.00;59669.53;5034430;28;20025;-62
2021/05/20 10:50:51;;;;;;;0.55;0.40;;;;;;;-142.37;100.00;59669.53;5043218;28;20032;-62
2021/05/20 10:53:40;;;;;;;0.70;0.23;;;;;;;-142.37;100.00;59669.53;5040243;28;20473;-63
2021/05/20 10:56:07;;;;;;;0.85;0.22;;;;;;;-142.37;100.00;59669.53;5038655;28;20026;-61
2021/05/20 10:58:37;;;;;;;1.10;0.47;;;;;;;-142.37;100.00;59669.53;5052145;28;20029;-63
2021/05/20 11:01:04;;;;;;;0.60;0.20;;;;;;;-142.37;100.00;59669.53;5054035;28;20063;-62
2021/05/20 11:03:48;;;;;;;1.08;0.40;;;;;;;-142.37;100.00;59669.53;5052561;28;20027;-62
2021/05/20 11:06:13;;;;;;;2.23;0.37;;;;;;;-142.37;100.00;59669.53;5036805;28;20025;-62
2021/05/20 11:08:39;;;;;;;0.60;0.30;;;;;;;-142.37;100.00;59669.53;5035467;28;20776;-62
2021/05/20 11:11:07;;;;;;;2.00;0.30;;;;;;;-142.37;100.00;59669.53;5034749;28;20112;-63
2021/05/20 11:13:45;;;;;;;0.50;0.30;;;;;;;-142.37;100.00;59669.53;5036187;28;20270;-62
2021/05/20 11:16:28;;;;;;;1.42;0.38;;;;;;;-142.37;100.00;59669.53;5037564;28;20107;-62
2021/05/20 11:19:13;;;;;;;1.95;0.50;;;;;;;-142.37;100.00;59669.53;5043345;28;20057;-62